sensor_id;sensor_type;location;lat;lon;timestamp;P1;durP1;ratioP1;P2;durP2;ratioP2
65053;SDS011;51639;47.828;35.038;2023-03-01T00:09:39;18.50;;;10.17;;
65053;SDS011;51639;47.828;35.038;2023-03-01T00:24:41;25.40;;;11.03;;
65053;SDS011;51639;47.828;35.038;2023-03-01T00:39:43;21.73;;;11.83;;
65053;SDS011;51639;47.828;35.038;2023-03-01T00:54:45;22.33;;;10.27;;
65053;SDS011;51639;47.828;35.038;2023-03-01T01:09:47;28.10;;;12.90;;
65053;SDS011;51639;47.828;35.038;2023-03-01T01:24:49;25.53;;;12.33;;
65053;SDS011;51639;47.828;35.038;2023-03-01T01:39:51;22.00;;;11.40;;
65053;SDS011;51639;47.828;35.038;2023-03-01T01:54:56;28.17;;;13.97;;
65053;SDS011;51639;47.828;35.038;2023-03-01T02:10:02;26.03;;;13.33;;
65053;SDS011;51639;47.828;35.038;2023-03-01T02:40:21;21.27;;;11.23;;
65053;SDS011;51639;47.828;35.038;2023-03-01T02:55:23;18.33;;;11.17;;
65053;SDS011;51639;47.828;35.038;2023-03-01T03:10:29;20.40;;;10.97;;
65053;SDS011;51639;47.828;35.038;2023-03-01T03:25:34;27.40;;;11.23;;
65053;SDS011;51639;47.828;35.038;2023-03-01T03:40:39;30.07;;;13.77;;
65053;SDS011;51639;47.828;35.038;2023-03-01T03:55:42;25.10;;;11.97;;
65053;SDS011;51639;47.828;35.038;2023-03-01T04:10:46;24.83;;;11.63;;
65053;SDS011;51639;47.828;35.038;2023-03-01T04:25:57;19.03;;;9.67;;
65053;SDS011;51639;47.828;35.038;2023-03-01T04:40:59;20.20;;;10.60;;
65053;SDS011;51639;47.828;35.038;2023-03-01T04:56:02;18.80;;;9.13;;
65053;SDS011;51639;47.828;35.038;2023-03-01T05:11:04;16.70;;;10.20;;
65053;SDS011;51639;47.828;35.038;2023-03-01T05:26:07;16.43;;;8.87;;
65053;SDS011;51639;47.828;35.038;2023-03-01T05:41:27;22.27;;;9.97;;
65053;SDS011;51639;47.828;35.038;2023-03-01T05:56:32;18.60;;;9.43;;
65053;SDS011;51639;47.828;35.038;2023-03-01T06:11:40;16.40;;;8.63;;
65053;SDS011;51639;47.828;35.038;2023-03-01T06:26:45;17.93;;;9.33;;
65053;SDS011;51639;47.828;35.038;2023-03-01T06:41:47;16.03;;;8.60;;
65053;SDS011;51639;47.828;35.038;2023-03-01T06:56:50;17.60;;;8.10;;
65053;SDS011;51639;47.828;35.038;2023-03-01T07:11:58;21.43;;;7.53;;
65053;SDS011;51639;47.828;35.038;2023-03-01T07:27:01;13.83;;;8.23;;
65053;SDS011;51639;47.828;35.038;2023-03-01T07:42:03;17.23;;;8.13;;
65053;SDS011;51639;47.828;35.038;2023-03-01T07:57:05;14.93;;;7.93;;
65053;SDS011;51639;47.828;35.038;2023-03-01T08:12:07;12.30;;;6.50;;
65053;SDS011;51639;47.828;35.038;2023-03-01T08:27:08;12.43;;;6.73;;
65053;SDS011;51639;47.828;35.038;2023-03-01T08:57:16;10.90;;;6.07;;
65053;SDS011;51639;47.828;35.038;2023-03-01T09:12:18;11.10;;;6.30;;
65053;SDS011;51639;47.828;35.038;2023-03-01T09:27:20;12.97;;;6.37;;
65053;SDS011;51639;47.828;35.038;2023-03-01T09:42:22;11.97;;;5.73;;
65053;SDS011;51639;47.828;35.038;2023-03-01T09:57:29;10.90;;;5.20;;
65053;SDS011;51639;47.828;35.038;2023-03-01T10:12:47;8.37;;;4.80;;
65053;SDS011;51639;47.828;35.038;2023-03-01T10:27:51;9.70;;;4.53;;
65053;SDS011;51639;47.828;35.038;2023-03-01T10:42:57;7.23;;;4.30;;
65053;SDS011;51639;47.828;35.038;2023-03-01T11:13:21;6.87;;;3.83;;
65053;SDS011;51639;47.828;35.038;2023-03-01T11:28:23;7.17;;;3.50;;
65053;SDS011;51639;47.828;35.038;2023-03-01T12:29:39;6.23;;;3.83;;
65053;SDS011;51639;47.828;35.038;2023-03-01T13:15:13;10.77;;;4.47;;
65053;SDS011;51639;47.828;35.038;2023-03-01T13:45:41;5.93;;;3.70;;
65053;SDS011;51639;47.828;35.038;2023-03-01T14:00:44;7.03;;;3.80;;
65053;SDS011;51639;47.828;35.038;2023-03-01T14:15:54;9.37;;;4.37;;
65053;SDS011;51639;47.828;35.038;2023-03-01T14:31:31;8.03;;;4.37;;
65053;SDS011;51639;47.828;35.038;2023-03-01T14:46:52;8.63;;;4.67;;
65053;SDS011;51639;47.828;35.038;2023-03-01T15:01:58;11.52;;;5.28;;
65053;SDS011;51639;47.828;35.038;2023-03-01T15:17:01;16.37;;;7.07;;
65053;SDS011;51639;47.828;35.038;2023-03-01T15:32:04;12.17;;;7.20;;
65053;SDS011;51639;47.828;35.038;2023-03-01T15:47:27;15.37;;;6.93;;
65053;SDS011;51639;47.828;35.038;2023-03-01T16:02:32;14.97;;;7.60;;
65053;SDS011;51639;47.828;35.038;2023-03-01T16:17:34;15.03;;;8.00;;
65053;SDS011;51639;47.828;35.038;2023-03-01T16:32:42;14.77;;;8.17;;
65053;SDS011;51639;47.828;35.038;2023-03-01T16:47:46;18.70;;;8.50;;
65053;SDS011;51639;47.828;35.038;2023-03-01T17:02:48;19.70;;;9.07;;
65053;SDS011;51639;47.828;35.038;2023-03-01T17:17:50;23.73;;;10.43;;
65053;SDS011;51639;47.828;35.038;2023-03-01T17:32:52;23.63;;;9.80;;
65053;SDS011;51639;47.828;35.038;2023-03-01T17:47:56;17.23;;;8.87;;
65053;SDS011;51639;47.828;35.038;2023-03-01T18:02:58;22.43;;;10.13;;
65053;SDS011;51639;47.828;35.038;2023-03-01T18:18:00;18.57;;;8.40;;
65053;SDS011;51639;47.828;35.038;2023-03-01T18:33:02;18.63;;;8.13;;
65053;SDS011;51639;47.828;35.038;2023-03-01T18:48:04;18.67;;;8.20;;
65053;SDS011;51639;47.828;35.038;2023-03-01T19:03:06;14.43;;;7.93;;
65053;SDS011;51639;47.828;35.038;2023-03-01T19:18:08;15.17;;;7.73;;
65053;SDS011;51639;47.828;35.038;2023-03-01T19:33:10;15.57;;;7.13;;
65053;SDS011;51639;47.828;35.038;2023-03-01T19:48:12;16.20;;;7.90;;
65053;SDS011;51639;47.828;35.038;2023-03-01T20:03:13;21.00;;;8.20;;
65053;SDS011;51639;47.828;35.038;2023-03-01T20:18:15;17.77;;;7.30;;
65053;SDS011;51639;47.828;35.038;2023-03-01T20:33:17;14.87;;;8.10;;
65053;SDS011;51639;47.828;35.038;2023-03-01T20:48:19;16.83;;;7.50;;
65053;SDS011;51639;47.828;35.038;2023-03-01T21:03:21;15.93;;;7.80;;
65053;SDS011;51639;47.828;35.038;2023-03-01T21:18:23;16.07;;;7.70;;
65053;SDS011;51639;47.828;35.038;2023-03-01T21:33:30;16.00;;;8.10;;
65053;SDS011;51639;47.828;35.038;2023-03-01T21:48:32;15.37;;;7.90;;
65053;SDS011;51639;47.828;35.038;2023-03-01T22:03:34;17.10;;;8.10;;
65053;SDS011;51639;47.828;35.038;2023-03-01T22:18:45;15.97;;;8.33;;
65053;SDS011;51639;47.828;35.038;2023-03-01T22:33:47;18.07;;;8.13;;
65053;SDS011;51639;47.828;35.038;2023-03-01T22:48:50;15.43;;;7.20;;
65053;SDS011;51639;47.828;35.038;2023-03-01T23:03:52;18.60;;;9.27;;
65053;SDS011;51639;47.828;35.038;2023-03-01T23:18:54;20.03;;;9.10;;
65053;SDS011;51639;47.828;35.038;2023-03-01T23:33:59;17.77;;;7.90;;
65053;SDS011;51639;47.828;35.038;2023-03-01T23:49:01;18.87;;;9.20;;
